Weather History for Plattsmouth, NE

Change the Weather History Date:

Wednesday, October 10, 2012

  Actual Average (KOFF) Record (KOFF)
Temperature  
Mean Temperature 48 °F -  
Max Temperature 64 °F 66 °F 80 °F (2013)
Min Temperature 32 °F 44 °F 26 °F (2012)
Degree Days  
Heating Degree Days 17    
Moisture  
Dew Point 26 °F    
Average Humidity 48    
Maximum Humidity 72    
Minimum Humidity 24    
Precipitation  
Precipitation 0.00 in - - ()
Sea Level Pressure  
Sea Level Pressure 30.15 in    
Wind  
Wind Speed 5 mph (SW)    
Max Wind Speed 14 mph    
Max Gust Speed 18 mph    
Visibility 10 miles    
Events      
Averages and records for this station are not official NWS values.
T = Trace of Precipitation, MM = Missing Value Source: NWS Daily Summary

Daily Weather History Graph

Daily Weather History Graph

Search for Another Location

Airport:

Trip Planner

Search our weather history database for the weather conditions in past years. The results will help you decide how hot, cold, wet, or windy it might be!

Date:

Astronomy

Oct. 10, 2012 Rise Set
Actual Time 7:30 AM CDT 6:50 PM CDT
Civil Twilight 7:02 AM CDT 7:17 PM CDT
Nautical Twilight 6:30 AM CDT 7:49 PM CDT
Astronomical Twilight 5:58 AM CDT 8:21 PM CDT
Moon 2:05 AM CDT (10/10) 3:55 PM CDT (10/10)
Length of Visible Light 12h 14m
Length of Day
11h 19m
Waning Crescent, 27% of the Moon is Illuminated
Oct 10
Waning Crescent
Oct 15
New
Oct 21
First Quarter
Oct 29
Full
Nov 6
Last Quarter

Hourly Weather History & Observations

Time (CDT) Temp. Windchill Dew Point Humidity Pressure Visibility Wind Dir Wind Speed Gust Speed Precip Events Conditions
12:15 AM 38.3 °F 35.9 °F 25.9 °F 61% 30.15 in 10.0 mi West 3.5 mph - N/A   Clear
12:35 AM 36.3 °F 32.5 °F 25.7 °F 65% 30.15 in 10.0 mi West 4.6 mph - N/A   Clear
12:55 AM 35.1 °F 31.0 °F 25.7 °F 69% 30.16 in 10.0 mi West 4.6 mph - N/A   Clear
1:15 AM 36.5 °F 33.9 °F 25.7 °F 65% 30.16 in 10.0 mi West 3.5 mph - N/A   Clear
1:35 AM 33.8 °F 29.6 °F 25.3 °F 71% 30.16 in 10.0 mi West 4.6 mph - N/A   Clear
1:55 AM 35.6 °F 31.7 °F 25.7 °F 67% 30.16 in 10.0 mi WSW 4.6 mph - N/A   Clear
2:15 AM 36.5 °F 32.7 °F 25.7 °F 65% 30.17 in 10.0 mi WSW 4.6 mph - N/A   Clear
2:35 AM 35.6 °F 31.7 °F 25.7 °F 67% 30.17 in 10.0 mi WSW 4.6 mph - N/A   Clear
2:55 AM 35.2 °F 31.2 °F 25.7 °F 68% 30.18 in 10.0 mi WSW 4.6 mph - N/A   Clear
3:15 AM 34.2 °F 30.0 °F 25.5 °F 71% 30.18 in 10.0 mi WSW 4.6 mph - N/A   Clear
3:35 AM 34.7 °F 30.6 °F 25.5 °F 69% 30.18 in 10.0 mi WSW 4.6 mph - N/A   Clear
3:55 AM 34.7 °F 29.6 °F 25.3 °F 69% 30.18 in 10.0 mi WSW 5.8 mph - N/A   Clear
4:15 AM 34.7 °F 30.6 °F 25.3 °F 69% 30.18 in 10.0 mi WSW 4.6 mph - N/A   Clear
4:35 AM 34.7 °F 30.6 °F 25.2 °F 68% 30.18 in 10.0 mi WSW 4.6 mph - N/A   Clear
4:55 AM 34.7 °F 29.6 °F 25.5 °F 69% 30.18 in 10.0 mi WSW 5.8 mph - N/A   Clear
5:15 AM 33.6 °F 28.4 °F 24.8 °F 70% 30.19 in 10.0 mi WSW 5.8 mph - N/A   Clear
5:35 AM 33.8 °F 29.6 °F 24.8 °F 70% 30.19 in 10.0 mi WSW 4.6 mph - N/A   Clear
5:55 AM 33.8 °F 29.6 °F 24.6 °F 69% 30.19 in 10.0 mi WSW 4.6 mph - N/A   Clear
6:15 AM 33.1 °F 28.7 °F 24.4 °F 71% 30.20 in 10.0 mi West 4.6 mph - N/A   Clear
6:35 AM 33.3 °F 30.2 °F 24.6 °F 71% 30.21 in 10.0 mi West 3.5 mph - N/A   Clear
6:55 AM 33.4 °F 29.1 °F 24.6 °F 70% 30.22 in 10.0 mi WNW 4.6 mph - N/A   Clear
7:15 AM 32.9 °F 29.8 °F 24.6 °F 72% 30.22 in 10.0 mi West 3.5 mph - N/A   Clear
7:35 AM 33.8 °F - 24.6 °F 69% 30.22 in 10.0 mi Calm Calm - N/A   Clear
7:55 AM 34.2 °F 31.2 °F 24.6 °F 68% 30.22 in 10.0 mi West 3.5 mph - N/A   Clear
8:15 AM 34.3 °F - 25.3 °F 70% 30.23 in 10.0 mi Calm Calm - N/A   Clear
8:35 AM 35.1 °F 32.2 °F 25.7 °F 69% 30.23 in 10.0 mi WSW 3.5 mph - N/A   Clear
8:55 AM 36.5 °F 33.9 °F 25.7 °F 65% 30.24 in 10.0 mi WSW 3.5 mph - N/A   Clear
9:15 AM 39.0 °F 36.8 °F 27.1 °F 62% 30.24 in 10.0 mi West 3.5 mph - N/A   Clear
9:35 AM 42.1 °F 40.2 °F 27.7 °F 57% 30.24 in 10.0 mi West 3.5 mph - N/A   Clear
9:55 AM 45.1 °F 43.7 °F 27.3 °F 50% 30.24 in 10.0 mi West 3.5 mph - N/A   Clear
10:15 AM 47.5 °F - 27.0 °F 45% 30.24 in 10.0 mi SW 3.5 mph - N/A   Clear
10:35 AM 49.5 °F - 26.1 °F 40% 30.24 in 10.0 mi West 4.6 mph - N/A   Clear
10:55 AM 50.5 °F - 24.8 °F 37% 30.24 in 10.0 mi WSW 4.6 mph - N/A   Clear
11:15 AM 52.3 °F - 25.3 °F 35% 30.24 in 10.0 mi WSW 6.9 mph - N/A   Clear
11:55 AM 54.0 °F - 24.8 °F 32% 30.24 in 10.0 mi West 5.8 mph - N/A   Clear
12:15 PM 55.6 °F - 25.0 °F 31% 30.23 in 10.0 mi SW 4.6 mph - N/A   Clear
12:35 PM 56.1 °F - 25.2 °F 30% 30.22 in 10.0 mi WSW 4.6 mph - N/A   Clear
12:55 PM 56.5 °F - 25.0 °F 30% 30.21 in 10.0 mi SSW 3.5 mph - N/A   Clear
1:15 PM 57.9 °F - 25.7 °F 29% 30.20 in 10.0 mi WSW 4.6 mph - N/A   Clear
1:35 PM 59.2 °F - 25.9 °F 28% 30.19 in 10.0 mi SW 6.9 mph - N/A   Clear
1:55 PM 59.9 °F - 26.2 °F 28% 30.17 in 10.0 mi West 3.5 mph - N/A   Clear
2:15 PM 61.2 °F - 26.6 °F 27% 30.16 in 10.0 mi SW 6.9 mph 16.1 mph N/A   Clear
2:35 PM 61.3 °F - 26.4 °F 27% 30.15 in 10.0 mi SSW 5.8 mph - N/A   Clear
2:55 PM 62.2 °F - 26.4 °F 26% 30.14 in 10.0 mi SSW 8.1 mph - N/A   Clear
3:15 PM 63.1 °F - 26.2 °F 25% 30.13 in 10.0 mi WSW 10.4 mph 18.4 mph N/A   Clear
3:35 PM 63.0 °F - 26.1 °F 25% 30.13 in 10.0 mi West 3.5 mph 16.1 mph N/A   Clear
3:55 PM 64.0 °F - 26.2 °F 24% 30.11 in 10.0 mi South 6.9 mph - N/A   Clear
4:15 PM 64.0 °F - 26.4 °F 24% 30.10 in 10.0 mi SSW 9.2 mph - N/A   Clear
4:35 PM 63.9 °F - 26.2 °F 24% 30.09 in 10.0 mi WSW 11.5 mph 17.3 mph N/A   Clear
4:55 PM 64.2 °F - 26.4 °F 24% 30.09 in 10.0 mi SSW 13.8 mph 17.3 mph N/A   Clear
5:15 PM 63.9 °F - 26.6 °F 24% 30.08 in 10.0 mi SSW 10.4 mph 16.1 mph N/A   Clear
5:35 PM 63.5 °F - 26.4 °F 25% 30.07 in 10.0 mi SSW 12.7 mph 17.3 mph N/A   Clear
5:55 PM 62.8 °F - 26.6 °F 25% 30.07 in 10.0 mi SSW 11.5 mph - N/A   Clear
6:15 PM 61.7 °F - 26.4 °F 26% 30.06 in 10.0 mi SSW 9.2 mph - N/A   Clear
6:35 PM 59.2 °F - 26.6 °F 29% 30.06 in 10.0 mi South 6.9 mph - N/A   Clear
6:55 PM 56.3 °F - 26.2 °F 32% 30.06 in 10.0 mi South 5.8 mph - N/A   Clear
7:15 PM 54.3 °F - 26.2 °F 34% 30.06 in 10.0 mi South 6.9 mph - N/A   Clear
7:35 PM 53.1 °F - 26.4 °F 36% 30.06 in 10.0 mi South 6.9 mph - N/A   Clear
7:55 PM 51.1 °F - 26.6 °F 39% 30.07 in 10.0 mi South 6.9 mph - N/A   Clear
8:15 PM 52.5 °F - 27.1 °F 38% 30.07 in 10.0 mi South 8.1 mph - N/A   Clear
8:35 PM 51.6 °F - 27.3 °F 39% 30.07 in 10.0 mi SSE 8.1 mph - N/A   Clear
8:55 PM 50.9 °F - 27.5 °F 40% 30.07 in 10.0 mi South 9.2 mph - N/A   Clear
9:15 PM 50.2 °F - 27.5 °F 42% 30.07 in 10.0 mi South 8.1 mph - N/A   Clear
9:35 PM 50.9 °F - 27.5 °F 40% 30.07 in 10.0 mi South 10.4 mph - N/A   Clear
9:55 PM 50.9 °F - 27.9 °F 41% 30.07 in 10.0 mi South 10.4 mph - N/A   Clear
10:15 PM 50.5 °F - 27.7 °F 41% 30.07 in 10.0 mi South 10.4 mph - N/A   Clear
10:35 PM 49.5 °F - 28.2 °F 44% 30.07 in 10.0 mi South 9.2 mph - N/A   Clear
10:55 PM 48.9 °F - 28.2 °F 45% 30.06 in 10.0 mi South 10.4 mph - N/A   Clear
11:15 PM 48.6 °F - 28.4 °F 46% 30.07 in 10.0 mi SSE 9.2 mph - N/A   Clear
11:35 PM 48.4 °F - 28.4 °F 46% 30.06 in 10.0 mi South 10.4 mph - N/A   Clear
11:55 PM 47.8 °F - 28.4 °F 47% 30.06 in 10.0 mi South 10.4 mph - N/A   Clear